This is the latest recevied weather packets stored in our database for station/object N8SDR. If no packets are shown the sender has not sent any weather packets the latest 10 day(s).
| Time | Temp. | Humidity | Pressure | Rain* | Wind** | Luminosity | Snow |
|---|---|---|---|---|---|---|---|
| 1778058692 | 6.11° C | 99% | 1005.2 hPa | 0 mm | - | 0 W/m² | - |
| 1778058391 | 6.11° C | 99% | 1005 hPa | 0 mm | - | 0 W/m² | - |
| 1778058086 | 6.11° C | 99% | 1005 hPa | 0 mm | - | 0 W/m² | - |
| 1778057783 | 6.11° C | 99% | 1005 hPa | 0 mm | - | 0 W/m² | - |
| 1778057480 | 6.11° C | 99% | 1005.3 hPa | 0 mm | - | 0 W/m² | - |
| 1778057176 | 6.11° C | 99% | 1005.2 hPa | 0 mm | - | 0 W/m² | - |
| 1778056873 | 6.11° C | 99% | 1005.3 hPa | 0 mm | - | 0 W/m² | - |
| 1778056570 | 6.11° C | 99% | 1005.3 hPa | 0 mm | - | 0 W/m² | - |
| 1778056268 | 6.11° C | 99% | 1005.2 hPa | 0 mm | - | 0 W/m² | - |
| 1778055964 | 6.11° C | 99% | 1005.2 hPa | 0 mm | - | 0 W/m² | - |
| 1778055660 | 6.11° C | 99% | 1005.3 hPa | 0 mm | - | 0 W/m² | - |
| 1778055358 | 6.11° C | 99% | 1005 hPa | 0 mm | - | 0 W/m² | - |
| 1778055055 | 6.11° C | 99% | 1005.1 hPa | 0 mm | - | 0 W/m² | - |
| 1778054753 | 6.11° C | 99% | 1004.8 hPa | 1.27 mm | - | 0 W/m² | - |
| 1778054450 | 6.11° C | 99% | 1004.7 hPa | 1.27 mm | - | 0 W/m² | - |
| 1778054148 | 6.67° C | 99% | 1005 hPa | 0 mm | - | 0 W/m² | - |
| 1778053844 | 6.67° C | 99% | 1005.1 hPa | 0 mm | - | 0 W/m² | - |
| 1778053542 | 6.67° C | 99% | 1004.9 hPa | 1.78 mm | - | 0 W/m² | - |
| 1778053238 | 6.67° C | 99% | 1004.9 hPa | 3.05 mm | - | 0 W/m² | - |
| 1778052936 | 6.67° C | 99% | 1005 hPa | 1.27 mm | - | 0 W/m² | - |
| 1778052633 | 7.22° C | 99% | 1005.4 hPa | 0 mm | - | 0 W/m² | - |
| 1778052330 | 7.22° C | 99% | 1005.2 hPa | 1.78 mm | - | 0 W/m² | - |
| 1778052028 | 7.22° C | 99% | 1005.1 hPa | 1.78 mm | - | 0 W/m² | - |
| 1778051726 | 7.78° C | 99% | 1004.9 hPa | 1.27 mm | - | 0 W/m² | - |
| 1778051423 | 7.78° C | 99% | 1004.9 hPa | 3.05 mm | - | 0 W/m² | - |
* Rain latest hour (hover to see other rain measurements)
** Current wind speed in m/s (hover to see current wind gust speed)